Terminal Aerodrome Forecast
Issued by NWS Cleveland, OH

Home | Current Version | Previous Version | Graphics & Text | Print | Product List | Glossary On
Versions: 1 2 3 4 5 6 7 8 9 10 11 12 13 14 15 16
992
FTUS41 KCLE 201939 AAA
TAFERI
TAF AMD
KERI 201939Z 2020/2118 06006KT P6SM VCSH SCT005 OVC045
      TEMPO 2020/2021 5SM -SHRA BKN035
     FM202300 21012KT 5SM -SHRA VCTS SCT007 OVC035CB
      TEMPO 2100/2103 2SM TSRA OVC025CB
     FM210600 24012G20KT P6SM SCT020 BKN080
     FM211100 25012KT P6SM BKN020=

USA.gov is the U.S. government's official web portal to all federal, state and local government web resources and services.